createdAt,value
2016-05-28T00:00:07.251Z,54.13
2016-05-28T00:01:07.207Z,54.03
2016-05-28T00:02:07.194Z,54.42
2016-05-28T00:03:07.166Z,54.42
2016-05-28T00:04:07.168Z,54.32
2016-05-28T00:05:07.390Z,54.22
2016-05-28T00:06:06.971Z,54.42
2016-05-28T00:07:06.957Z,54.13
2016-05-28T00:08:07.102Z,54.42
2016-05-28T00:09:07.088Z,54.61
2016-05-28T00:10:07.075Z,54.71
2016-05-28T00:11:07.079Z,54.9
2016-05-28T00:12:07.049Z,54.8
2016-05-28T00:13:07.052Z,55
2016-05-28T00:14:07.024Z,54.8
2016-05-28T00:15:07.026Z,54.9
2016-05-28T00:16:07.014Z,54.9
2016-05-28T00:17:06.984Z,55
2016-05-28T00:18:06.972Z,54.9
2016-05-28T00:19:06.959Z,55.09
2016-05-28T00:20:06.946Z,54.71
2016-05-28T00:21:06.933Z,55.09
2016-05-28T00:22:06.936Z,55.29
2016-05-28T00:23:06.923Z,55.77
2016-05-28T00:24:06.895Z,55.48
2016-05-28T00:25:06.881Z,55.29
2016-05-28T00:26:06.868Z,55.77
2016-05-28T00:27:06.856Z,55.38
2016-05-28T00:28:06.842Z,55.29
2016-05-28T00:29:06.830Z,55.09
2016-05-28T00:30:06.817Z,54.71
2016-05-28T00:31:06.804Z,54.52
2016-05-28T00:32:06.635Z,54.71
2016-05-28T00:33:06.778Z,54.61
2016-05-28T00:34:06.765Z,55.09
2016-05-28T00:35:06.752Z,55
2016-05-28T00:36:06.583Z,54.9
2016-05-28T00:37:06.727Z,54.71
2016-05-28T00:38:06.713Z,54.8
2016-05-28T00:39:06.716Z,54.9
2016-05-28T00:40:06.687Z,55
2016-05-28T00:41:06.674Z,55
2016-05-28T00:42:06.662Z,55
2016-05-28T00:43:06.649Z,54.9
2016-05-28T00:44:06.479Z,54.8
2016-05-28T00:45:06.623Z,55.48
2016-05-28T00:46:06.610Z,55.67
2016-05-28T00:47:06.598Z,55.48
2016-05-28T00:48:06.584Z,55.29
2016-05-28T00:49:06.571Z,55.29
2016-05-28T00:50:06.558Z,55.67
2016-05-28T00:51:06.545Z,55.29
2016-05-28T00:52:06.532Z,55.29
2016-05-28T00:53:06.534Z,55.67
2016-05-28T00:54:06.506Z,55.57
2016-05-28T00:55:06.494Z,55.57
2016-05-28T00:56:06.480Z,55.77
2016-05-28T00:57:06.468Z,55.77
2016-05-28T00:58:06.455Z,55.77
2016-05-28T00:59:06.441Z,55.93
2016-05-28T01:00:06.429Z,55.87
2016-05-28T01:01:06.416Z,55.65
2016-05-28T01:02:06.402Z,55.67
2016-05-28T01:03:06.390Z,55.77
2016-05-28T01:04:06.377Z,55.38
2016-05-28T01:05:06.755Z,55.96
2016-05-28T01:06:06.366Z,55.74
2016-05-28T01:07:06.338Z,55.83
2016-05-28T01:08:06.325Z,55.74
2016-05-28T01:09:06.313Z,55.65
2016-05-28T01:10:06.300Z,55.45
2016-05-28T01:11:06.286Z,55.83
2016-05-28T01:12:06.273Z,55.55
2016-05-28T01:13:06.354Z,55.83
2016-05-28T01:14:06.248Z,55.74
2016-05-28T01:15:06.406Z,55.87
2016-05-28T01:16:06.129Z,55.96
2016-05-28T01:17:06.209Z,55.83
2016-05-28T01:18:06.196Z,55.87
2016-05-28T01:19:06.183Z,55.96
2016-05-28T01:20:06.170Z,55.67
2016-05-28T01:21:06.345Z,55.77
2016-05-28T01:22:06.144Z,55.77
2016-05-28T01:23:06.131Z,55.67
2016-05-28T01:24:06.118Z,55.67
2016-05-28T01:25:06.089Z,55.29
2016-05-28T01:26:06.092Z,55.77
2016-05-28T01:27:06.079Z,55.77
2016-05-28T01:28:06.051Z,55.57
2016-05-28T01:29:06.507Z,55.57
2016-05-28T01:30:06.041Z,55.67
2016-05-28T01:31:06.012Z,55.38
2016-05-28T01:32:06.014Z,55.57
2016-05-28T01:33:05.986Z,55.19
2016-05-28T01:34:05.974Z,55.38
2016-05-28T01:35:06.257Z,55.55
2016-05-28T01:36:05.947Z,55.83
2016-05-28T01:37:06.403Z,55.74
2016-05-28T01:38:05.921Z,55.74
2016-05-28T01:39:05.752Z,55.74
2016-05-28T01:40:05.895Z,55.93
2016-05-28T01:41:05.883Z,55.77
2016-05-28T01:42:05.870Z,55.55
2016-05-28T01:43:05.857Z,55.83
2016-05-28T01:44:05.704Z,56.03
2016-05-28T01:45:06.534Z,55.74
2016-05-28T01:46:05.818Z,55.83
2016-05-28T01:47:05.821Z,55.83
2016-05-28T01:48:05.792Z,55.45
2016-05-28T01:49:05.779Z,55.55
2016-05-28T01:50:05.767Z,55.55
2016-05-28T01:51:05.815Z,55.45
2016-05-28T01:52:05.740Z,55.83
2016-05-28T01:53:06.399Z,56.22
2016-05-28T01:54:05.714Z,56.6
2016-05-28T01:55:05.701Z,56.51
2016-05-28T01:56:05.704Z,56.51
2016-05-28T01:57:05.692Z,56.9
2016-05-28T01:58:05.663Z,56.8
2016-05-28T01:59:05.650Z,56.41
2016-05-28T02:00:05.637Z,56.05
2016-05-28T02:01:05.686Z,55.87
2016-05-28T02:02:05.611Z,55.77
2016-05-28T02:03:05.597Z,55.09
2016-05-28T02:04:05.600Z,54.52
2016-05-28T02:05:05.588Z,54.61
2016-05-28T02:06:05.560Z,54.06
2016-05-28T02:07:05.531Z,54.42
2016-05-28T02:08:05.377Z,54.44
2016-05-28T02:09:05.661Z,54.32
2016-05-28T02:10:05.508Z,54.32
2016-05-28T02:11:05.495Z,54.44
2016-05-28T02:12:05.482Z,54.54
2016-05-28T02:13:05.484Z,54.64
2016-05-28T02:14:05.456Z,54.74
2016-05-28T02:15:05.287Z,53.96
2016-05-28T02:16:05.430Z,53.87
2016-05-28T02:17:05.714Z,54.16
2016-05-28T02:18:05.404Z,53.77
2016-05-28T02:19:05.390Z,53.58
2016-05-28T02:20:05.769Z,53.58
2016-05-28T02:21:05.350Z,53.58
2016-05-28T02:22:05.352Z,53.58
2016-05-28T02:23:05.340Z,53.67
2016-05-28T02:24:05.326Z,53.67
2016-05-28T02:25:05.704Z,54.16
2016-05-28T02:26:05.129Z,53.58
2016-05-28T02:27:05.287Z,53.58
2016-05-28T02:28:05.275Z,53.58
2016-05-28T02:29:05.090Z,53.87
2016-05-28T02:30:05.249Z,53.58
2016-05-28T02:31:05.236Z,53.96
2016-05-28T02:32:05.176Z,53.87
2016-05-28T02:33:05.710Z,53.67
2016-05-28T02:34:05.197Z,53.58
2016-05-28T02:35:05.183Z,53.67
2016-05-28T02:36:05.171Z,53.58
2016-05-28T02:37:05.159Z,53.87
2016-05-28T02:38:05.130Z,53.67
2016-05-28T02:39:05.117Z,53.77
2016-05-28T02:40:05.307Z,53.87
2016-05-28T02:41:05.091Z,53.96
2016-05-28T02:42:05.093Z,53.87
2016-05-28T02:43:04.910Z,53.96
2016-05-28T02:44:05.052Z,53.58
2016-05-28T02:45:05.039Z,54.06
2016-05-28T02:46:04.871Z,53.77
2016-05-28T02:47:05.013Z,53.87
2016-05-28T02:48:05.298Z,53.48
2016-05-28T02:49:05.003Z,53.96
2016-05-28T02:50:04.974Z,53.77
2016-05-28T02:51:04.962Z,53.58
2016-05-28T02:52:04.949Z,54.06
2016-05-28T02:53:04.780Z,53.96
2016-05-28T02:54:04.922Z,53.87
2016-05-28T02:55:04.925Z,53.67
2016-05-28T02:56:05.350Z,54.06
2016-05-28T02:57:04.884Z,53.58
2016-05-28T02:58:04.886Z,53.87
2016-05-28T02:59:04.858Z,53.58
2016-05-28T03:00:04.845Z,53.58
2016-05-28T03:01:04.832Z,53.67
2016-05-28T03:02:04.820Z,53.58
2016-05-28T03:03:04.806Z,53.77
2016-05-28T03:04:05.341Z,53.58
2016-05-28T03:05:04.796Z,53.58
2016-05-28T03:06:04.783Z,54.06
2016-05-28T03:07:04.769Z,54.25
2016-05-28T03:08:04.742Z,54.16
2016-05-28T03:09:04.729Z,54.06
2016-05-28T03:10:04.716Z,54.44
2016-05-28T03:11:04.703Z,54.54
2016-05-28T03:12:05.488Z,54.54
2016-05-28T03:13:04.521Z,54.35
2016-05-28T03:14:04.664Z,54.44
2016-05-28T03:15:04.651Z,54.54
2016-05-28T03:16:04.638Z,54.54
2016-05-28T03:17:04.625Z,54.44
2016-05-28T03:18:04.613Z,54.54
2016-05-28T03:19:04.599Z,54.44
2016-05-28T03:20:04.680Z,54.35
2016-05-28T03:21:04.573Z,54.16
2016-05-28T03:22:04.560Z,54.35
2016-05-28T03:23:04.548Z,54.16
2016-05-28T03:24:04.535Z,54.25
2016-05-28T03:25:04.522Z,54.64
2016-05-28T03:26:04.509Z,54.25
2016-05-28T03:27:04.495Z,54.64
2016-05-28T03:28:05.483Z,54.54
2016-05-28T03:29:04.470Z,54.54
2016-05-28T03:30:04.473Z,54.44
2016-05-28T03:31:04.444Z,54.44
2016-05-28T03:32:04.431Z,54.44
2016-05-28T03:33:04.419Z,54.74
2016-05-28T03:34:04.405Z,54.54
2016-05-28T03:35:04.424Z,54.64
2016-05-28T03:36:04.677Z,54.74
2016-05-28T03:37:04.225Z,54.93
2016-05-28T03:38:04.353Z,54.83
2016-05-28T03:39:04.340Z,54.93
2016-05-28T03:40:04.327Z,54.93
2016-05-28T03:41:04.331Z,54.83
2016-05-28T03:42:04.302Z,54.83
2016-05-28T03:43:04.288Z,55.02
2016-05-28T03:44:05.308Z,55.02
2016-05-28T03:45:04.263Z,54.83
2016-05-28T03:46:04.250Z,54.83
2016-05-28T03:47:04.237Z,54.93
2016-05-28T03:48:04.224Z,54.93
2016-05-28T03:49:04.055Z,55.12
2016-05-28T03:50:04.496Z,55.02
2016-05-28T03:51:04.185Z,55.12
2016-05-28T03:52:04.673Z,55.02
2016-05-28T03:53:04.160Z,55.31
2016-05-28T03:54:04.147Z,55.6
2016-05-28T03:55:04.134Z,55.51
2016-05-28T03:56:04.120Z,55.41
2016-05-28T03:57:03.951Z,55.41
2016-05-28T03:58:03.939Z,54.93
2016-05-28T03:59:04.081Z,55.31
2016-05-28T04:00:03.912Z,55.22
2016-05-28T04:01:04.056Z,54.83
2016-05-28T04:02:04.043Z,55.12
2016-05-28T04:03:04.031Z,55.51
2016-05-28T04:04:04.017Z,55.02
2016-05-28T04:05:04.208Z,55.79
2016-05-28T04:06:03.992Z,55.79
2016-05-28T04:07:03.978Z,55.12
2016-05-28T04:08:03.965Z,55.12
2016-05-28T04:09:03.953Z,55.51
2016-05-28T04:10:03.939Z,55.51
2016-05-28T04:11:03.942Z,55.31
2016-05-28T04:12:03.930Z,55.89
2016-05-28T04:13:03.916Z,55.31
2016-05-28T04:14:03.888Z,55.22
2016-05-28T04:15:03.719Z,55.02
2016-05-28T04:16:03.863Z,55.41
2016-05-28T04:17:03.833Z,55.12
2016-05-28T04:18:03.680Z,55.12
2016-05-28T04:19:03.824Z,55.6
2016-05-28T04:20:03.888Z,55.7
2016-05-28T04:21:03.798Z,55.6
2016-05-28T04:22:03.784Z,55.6
2016-05-28T04:23:03.771Z,55.51
2016-05-28T04:24:03.602Z,55.41
2016-05-28T04:25:03.746Z,55.12
2016-05-28T04:26:03.748Z,55.02
2016-05-28T04:27:03.720Z,55.7
2016-05-28T04:28:03.706Z,56.09
2016-05-28T04:29:03.694Z,55.89
2016-05-28T04:30:03.525Z,55.79
2016-05-28T04:31:03.667Z,56.18
2016-05-28T04:32:03.655Z,55.6
2016-05-28T04:33:03.642Z,55.7
2016-05-28T04:34:03.472Z,55.99
2016-05-28T04:35:03.710Z,55.41
2016-05-28T04:36:03.588Z,55.79
2016-05-28T04:37:03.591Z,55.41
2016-05-28T04:38:03.578Z,55.89
2016-05-28T04:39:03.549Z,55.79
2016-05-28T04:40:03.380Z,55.7
2016-05-28T04:41:03.383Z,55.79
2016-05-28T04:42:03.525Z,55.7
2016-05-28T04:43:03.513Z,55.41
2016-05-28T04:44:03.500Z,55.6
2016-05-28T04:45:03.488Z,55.79
2016-05-28T04:46:03.458Z,55.22
2016-05-28T04:47:03.305Z,55.02
2016-05-28T04:48:03.449Z,55.6
2016-05-28T04:49:03.435Z,55.41
2016-05-28T04:50:03.422Z,55.89
2016-05-28T04:51:03.410Z,55.79
2016-05-28T04:52:03.396Z,55.7
2016-05-28T04:53:03.384Z,55.6
2016-05-28T04:54:03.199Z,55.51
2016-05-28T04:55:03.357Z,55.51
2016-05-28T04:56:03.345Z,55.79
2016-05-28T04:57:03.315Z,55.99
2016-05-28T04:58:03.147Z,55.41
2016-05-28T04:59:03.306Z,55.7
2016-05-28T05:00:03.293Z,55.6
2016-05-28T05:01:03.280Z,55.7
2016-05-28T05:02:03.267Z,55.7
2016-05-28T05:03:03.239Z,55.7
2016-05-28T05:04:03.084Z,56.09
2016-05-28T05:05:03.087Z,55.7
2016-05-28T05:06:03.214Z,55.6
2016-05-28T05:07:03.202Z,55.79
2016-05-28T05:08:03.199Z,55.7
2016-05-28T05:09:03.195Z,55.6
2016-05-28T05:10:03.206Z,56.09
2016-05-28T05:11:03.233Z,55.7
2016-05-28T05:12:03.088Z,55.7
2016-05-28T05:13:03.251Z,55.99
2016-05-28T05:14:03.247Z,55.7
2016-05-28T05:15:03.243Z,55.7
2016-05-28T05:16:03.238Z,55.99
2016-05-28T05:17:03.235Z,55.6
2016-05-28T05:18:03.229Z,55.6
2016-05-28T05:19:03.218Z,56.18
2016-05-28T05:20:03.208Z,55.99
2016-05-28T05:21:03.183Z,55.79
2016-05-28T05:22:03.174Z,55.7
2016-05-28T05:23:03.162Z,55.7
2016-05-28T05:24:03.167Z,56.27
2016-05-28T05:25:03.155Z,55.79
2016-05-28T05:26:03.127Z,55.79
2016-05-28T05:27:03.131Z,55.79
2016-05-28T05:28:02.962Z,55.79
2016-05-28T05:29:02.950Z,55.7
2016-05-28T05:30:03.078Z,55.79
2016-05-28T05:31:03.082Z,56.09
2016-05-28T05:32:02.913Z,55.51
2016-05-28T05:33:02.885Z,55.79
2016-05-28T05:34:02.871Z,55.79
2016-05-28T05:35:03.186Z,55.99
2016-05-28T05:36:03.018Z,55.7
2016-05-28T05:37:03.004Z,55.6
2016-05-28T05:38:02.976Z,55.7
2016-05-28T05:39:02.822Z,55.99
2016-05-28T05:40:02.793Z,55.79
2016-05-28T05:41:02.953Z,55.79
2016-05-28T05:42:02.924Z,55.99
2016-05-28T05:43:02.973Z,55.7
2016-05-28T05:44:02.976Z,55.7
2016-05-28T05:45:02.901Z,55.7
2016-05-28T05:46:02.888Z,55.99
2016-05-28T05:47:02.859Z,55.79
2016-05-28T05:48:02.846Z,55.7
2016-05-28T05:49:02.834Z,56.18
2016-05-28T05:50:02.695Z,55.51
2016-05-28T05:51:02.823Z,56.09
2016-05-28T05:52:02.858Z,55.7
2016-05-28T05:53:02.797Z,55.7
2016-05-28T05:54:02.769Z,55.7
2016-05-28T05:55:02.755Z,55.7
2016-05-28T05:56:02.759Z,56.18
2016-05-28T05:57:02.746Z,56.27
2016-05-28T05:58:02.717Z,56.09
2016-05-28T05:59:02.705Z,55.99
2016-05-28T06:00:02.847Z,55.79
2016-05-28T06:01:02.678Z,55.7
2016-05-28T06:02:02.680Z,55.79
2016-05-28T06:03:02.669Z,55.79
2016-05-28T06:04:02.640Z,55.79
2016-05-28T06:05:02.627Z,55.99
2016-05-28T06:06:02.457Z,55.99
2016-05-28T06:07:02.600Z,55.79
2016-05-28T06:08:02.900Z,55.79
2016-05-28T06:09:02.575Z,55.89
2016-05-28T06:10:02.577Z,55.79
2016-05-28T06:11:02.564Z,55.99
2016-05-28T06:12:02.536Z,55.7
2016-05-28T06:13:02.539Z,55.99
2016-05-28T06:14:02.510Z,55.99
2016-05-28T06:15:02.497Z,55.99
2016-05-28T06:16:02.843Z,55.89
2016-05-28T06:17:02.487Z,55.79
2016-05-28T06:18:02.474Z,55.51
2016-05-28T06:19:02.305Z,55.7
2016-05-28T06:20:02.292Z,55.79
2016-05-28T06:21:02.436Z,55.6
2016-05-28T06:22:02.422Z,55.99
2016-05-28T06:23:02.394Z,55.79
2016-05-28T06:24:02.881Z,55.6
2016-05-28T06:25:02.367Z,55.89
2016-05-28T06:26:02.370Z,55.89
2016-05-28T06:27:02.342Z,55.79
2016-05-28T06:28:02.329Z,55.99
2016-05-28T06:29:02.316Z,55.89
2016-05-28T06:30:02.303Z,56.09
2016-05-28T06:31:02.305Z,55.6
2016-05-28T06:32:02.886Z,55.79
2016-05-28T06:33:02.280Z,55.6
2016-05-28T06:34:02.252Z,55.7
2016-05-28T06:35:02.098Z,55.79
2016-05-28T06:36:02.085Z,55.6
2016-05-28T06:37:02.228Z,55.7
2016-05-28T06:38:02.199Z,55.6
2016-05-28T06:39:02.187Z,55.79
2016-05-28T06:40:02.877Z,55.6
2016-05-28T06:41:02.004Z,55.89
2016-05-28T06:42:02.163Z,55.99
2016-05-28T06:43:02.135Z,55.6
2016-05-28T06:44:02.122Z,55.7
2016-05-28T06:45:02.125Z,55.7
2016-05-28T06:46:02.111Z,55.6
2016-05-28T06:47:02.099Z,55.7
2016-05-28T06:48:02.179Z,55.79
2016-05-28T06:49:02.057Z,55.79
2016-05-28T06:50:02.044Z,55.6
2016-05-28T06:51:02.047Z,55.7
2016-05-28T06:52:02.019Z,55.79
2016-05-28T06:53:02.021Z,55.79
2016-05-28T06:54:02.025Z,55.7
2016-05-28T06:55:02.792Z,55.6
2016-05-28T06:56:01.825Z,55.6
2016-05-28T06:57:01.970Z,55.51
2016-05-28T06:58:01.957Z,55.7
2016-05-28T06:59:01.944Z,55.51
2016-05-28T07:00:01.930Z,55.7
2016-05-28T07:01:01.918Z,55.7
2016-05-28T07:02:01.889Z,55.7
2016-05-28T07:03:02.079Z,55.51
2016-05-28T07:04:01.879Z,55.7
2016-05-28T07:05:02.116Z,55.89
2016-05-28T07:06:01.837Z,55.6
2016-05-28T07:07:01.840Z,55.89
2016-05-28T07:08:01.827Z,55.89
2016-05-28T07:09:01.643Z,55.89
2016-05-28T07:10:01.785Z,55.6
2016-05-28T07:11:02.085Z,55.7
2016-05-28T07:12:01.775Z,55.7
2016-05-28T07:13:01.746Z,55.6
2016-05-28T07:14:01.734Z,55.6
2016-05-28T07:15:01.564Z,55.7
2016-05-28T07:16:01.724Z,55.79
2016-05-28T07:17:01.711Z,56.47
2016-05-28T07:18:01.698Z,56.37
2016-05-28T07:19:02.075Z,56.47
2016-05-28T07:20:01.656Z,55.89
2016-05-28T07:21:01.486Z,56.47
2016-05-28T07:22:01.631Z,56.57
2016-05-28T07:23:01.617Z,56.27
2016-05-28T07:24:01.620Z,55.99
2016-05-28T07:25:01.451Z,56.57
2016-05-28T07:26:01.578Z,56.27
2016-05-28T07:27:01.409Z,56.37
2016-05-28T07:28:01.568Z,56.57
2016-05-28T07:29:01.556Z,56.3
2016-05-28T07:30:01.542Z,56.37
2016-05-28T07:31:01.544Z,56.4
2016-05-28T07:32:01.517Z,56.11
2016-05-28T07:33:01.502Z,56.09
2016-05-28T07:34:01.489Z,55.7
2016-05-28T07:35:01.491Z,56.18
2016-05-28T07:36:01.446Z,56.09
2016-05-28T07:37:01.293Z,55.7
2016-05-28T07:38:01.452Z,55.89
2016-05-28T07:39:01.251Z,55.79
2016-05-28T07:40:01.410Z,55.89
2016-05-28T07:41:01.413Z,56.18
2016-05-28T07:42:01.385Z,55.99
2016-05-28T07:43:01.356Z,56.18
2016-05-28T07:44:01.202Z,56.09
2016-05-28T07:45:01.346Z,56.09
2016-05-28T07:46:01.176Z,55.99
2016-05-28T07:47:01.304Z,56.09
2016-05-28T07:48:01.291Z,55.89
2016-05-28T07:49:01.325Z,55.99
2016-05-28T07:50:01.797Z,56.57
2016-05-28T07:51:01.253Z,55.89
2016-05-28T07:52:01.255Z,56.37
2016-05-28T07:53:01.242Z,55.99
2016-05-28T07:54:01.229Z,56.27
2016-05-28T07:55:01.200Z,56.27
2016-05-28T07:56:01.203Z,56.09
2016-05-28T07:57:01.191Z,55.99
2016-05-28T07:58:01.162Z,56.47
2016-05-28T07:59:01.150Z,56.11
2016-05-28T08:00:00.995Z,55.99
2016-05-28T08:01:01.122Z,56.18
2016-05-28T08:02:01.126Z,56.27
2016-05-28T08:03:01.113Z,56.47
2016-05-28T08:04:01.100Z,56.27
2016-05-28T08:05:01.196Z,56.37
2016-05-28T08:06:01.074Z,56.37
2016-05-28T08:07:01.061Z,56.4
2016-05-28T08:08:01.032Z,56.47
2016-05-28T08:09:01.035Z,56.47
2016-05-28T08:10:01.022Z,56.3
2016-05-28T08:11:00.994Z,56.37
2016-05-28T08:12:00.996Z,56.37
2016-05-28T08:13:00.984Z,56.85
2016-05-28T08:14:00.971Z,56.95
2016-05-28T08:15:00.957Z,56.59
2016-05-28T08:16:00.945Z,56.66
2016-05-28T08:17:00.932Z,56.47
2016-05-28T08:18:00.918Z,56.49
2016-05-28T08:19:00.906Z,56.47
2016-05-28T08:20:01.081Z,56.49
2016-05-28T08:21:00.864Z,56.69
2016-05-28T08:22:00.868Z,56.76
2016-05-28T08:23:00.854Z,56.66
2016-05-28T08:24:01.247Z,56.76
2016-05-28T08:25:00.828Z,57.27
2016-05-28T08:26:00.847Z,57.24
2016-05-28T08:27:00.802Z,57.85
2016-05-28T08:28:00.618Z,59.3
2016-05-28T08:29:05.170Z,60.06
2016-05-28T08:30:00.764Z,60.45
2016-05-28T08:31:00.751Z,60.35
2016-05-28T08:32:00.738Z,59.2
2016-05-28T08:33:00.725Z,58.81
2016-05-28T08:34:04.418Z,58.72
2016-05-28T08:35:00.699Z,57.94
2016-05-28T08:36:00.686Z,58.72
2016-05-28T08:37:00.673Z,58.91
2016-05-28T08:38:00.660Z,57.65
2016-05-28T08:39:00.663Z,57.94
2016-05-28T08:40:00.635Z,58.52
2016-05-28T08:41:00.606Z,57.85
2016-05-28T08:42:00.608Z,57.94
2016-05-28T08:43:00.596Z,57.27
2016-05-28T08:44:03.395Z,57.56
2016-05-28T08:45:00.554Z,57.75
2016-05-28T08:46:00.557Z,56.98
2016-05-28T08:47:00.544Z,57.27
2016-05-28T08:48:00.515Z,57.75
2016-05-28T08:49:01.315Z,56.98
2016-05-28T08:50:00.505Z,57.07
2016-05-28T08:51:00.508Z,57.07
2016-05-28T08:52:00.479Z,56.98
2016-05-28T08:53:00.466Z,56.79
2016-05-28T08:54:00.454Z,57.07
2016-05-28T08:55:00.440Z,57.17
2016-05-28T08:56:00.428Z,56.98
2016-05-28T08:57:00.399Z,56.88
2016-05-28T08:58:00.401Z,56.59
2016-05-28T08:59:00.388Z,56.59
2016-05-28T09:00:00.375Z,56.88
2016-05-28T09:01:00.363Z,56.4
2016-05-28T09:02:00.350Z,56.3
2016-05-28T09:03:00.336Z,56.4
2016-05-28T09:04:00.325Z,56.4
2016-05-28T09:05:00.327Z,56.49
2016-05-28T09:06:00.298Z,56.3
2016-05-28T09:07:00.285Z,56.11
2016-05-28T09:08:00.272Z,56.21
2016-05-28T09:09:00.243Z,55.54
2016-05-28T09:10:00.246Z,55.54
2016-05-28T09:11:00.061Z,55.76
2016-05-28T09:12:00.221Z,55.73
2016-05-28T09:13:00.051Z,55.73
2016-05-28T09:14:00.194Z,55.82
2016-05-28T09:15:00.213Z,55.92
2016-05-28T09:16:00.169Z,55.73
2016-05-28T09:16:59.999Z,55.94
2016-05-28T09:17:59.987Z,55.92
2016-05-28T09:19:00.146Z,56.11
2016-05-28T09:20:00.742Z,55.73
2016-05-28T09:21:00.104Z,56.11
2016-05-28T09:22:00.090Z,55.94
2016-05-28T09:23:00.079Z,55.92
2016-05-28T09:24:00.065Z,55.73
2016-05-28T09:25:00.084Z,55.92
2016-05-28T09:26:00.040Z,56.01
2016-05-28T09:27:00.074Z,55.76
2016-05-28T09:28:00.014Z,55.44
2016-05-28T09:29:00.000Z,55.27
2016-05-28T09:29:59.987Z,55.36
2016-05-28T09:30:59.975Z,55.27
2016-05-28T09:31:59.962Z,55.56
2016-05-28T09:32:59.950Z,55.18
2016-05-28T09:33:59.935Z,55.46
2016-05-28T09:35:00.110Z,55.56
2016-05-28T09:35:59.910Z,55.18
2016-05-28T09:36:59.881Z,55.18
2016-05-28T09:37:59.727Z,55.46
2016-05-28T09:38:59.886Z,55.08
2016-05-28T09:39:59.858Z,55.85
2016-05-28T09:40:59.845Z,55.76
2016-05-28T09:41:59.833Z,55.36
2016-05-28T09:43:00.085Z,55.46
2016-05-28T09:43:59.807Z,55.08
2016-05-28T09:44:59.793Z,55.08
2016-05-28T09:45:59.827Z,54.88
2016-05-28T09:46:59.783Z,55.18
2016-05-28T09:47:59.755Z,54.88
2016-05-28T09:48:59.743Z,55.08
2016-05-28T09:49:59.604Z,54.98
2016-05-28T09:51:00.106Z,54.98
2016-05-28T09:51:59.718Z,54.79
2016-05-28T09:52:59.690Z,54.98
2016-05-28T09:53:59.676Z,54.98
2016-05-28T09:54:59.664Z,55.08
2016-05-28T09:55:59.792Z,55.08
2016-05-28T09:57:00.998Z,54.6
2016-05-28T09:57:59.641Z,54.79
2016-05-28T09:59:00.112Z,55.08
2016-05-28T09:59:59.600Z,55.18
2016-05-28T10:00:59.587Z,55.18
2016-05-28T10:01:59.573Z,54.88
2016-05-28T10:02:59.560Z,54.79
2016-05-28T10:03:59.547Z,55.85
2016-05-28T10:04:59.551Z,55.46
2016-05-28T10:05:59.538Z,55.76
2016-05-28T10:07:00.118Z,55.66
2016-05-28T10:07:59.497Z,55.36
2016-05-28T10:08:59.483Z,55.76
2016-05-28T10:09:59.314Z,55.85
2016-05-28T10:10:59.458Z,55.46
2016-05-28T10:11:59.289Z,54.88
2016-05-28T10:12:59.432Z,54.6
2016-05-28T10:13:59.418Z,54.79
2016-05-28T10:15:00.108Z,54.6
2016-05-28T10:15:59.393Z,55.08
2016-05-28T10:16:59.396Z,55.18
2016-05-28T10:17:59.227Z,54.6
2016-05-28T10:18:59.354Z,54.79
2016-05-28T10:19:59.341Z,54.98
2016-05-28T10:20:59.328Z,54.88
2016-05-28T10:21:59.315Z,54.98
2016-05-28T10:23:00.115Z,55.08
2016-05-28T10:23:59.305Z,54.6
2016-05-28T10:24:59.292Z,55.08
2016-05-28T10:25:59.278Z,54.98
2016-05-28T10:26:59.251Z,54.98
2016-05-28T10:27:59.253Z,54.88
2016-05-28T10:28:59.240Z,54.79
2016-05-28T10:29:59.320Z,54.79
2016-05-28T10:30:59.230Z,54.4
2016-05-28T10:31:59.045Z,54.69
2016-05-28T10:32:59.189Z,54.6
2016-05-28T10:33:59.175Z,54.69
2016-05-28T10:34:59.162Z,54.5
2016-05-28T10:35:59.150Z,54.98
2016-05-28T10:36:59.136Z,54.43
2016-05-28T10:37:59.327Z,54.69
2016-05-28T10:38:59.110Z,54.4
2016-05-28T10:39:59.097Z,54.5
2016-05-28T10:40:59.069Z,54.62
2016-05-28T10:41:59.072Z,54.98
2016-05-28T10:42:59.058Z,55.08
2016-05-28T10:43:59.046Z,54.5
2016-05-28T10:44:59.033Z,54.82
2016-05-28T10:45:59.176Z,54.43
2016-05-28T10:46:59.007Z,54.5
2016-05-28T10:47:58.994Z,54.5
2016-05-28T10:48:58.981Z,54.4
2016-05-28T10:49:59.702Z,54.33
2016-05-28T10:50:58.799Z,54.24
2016-05-28T10:51:58.787Z,54.43
2016-05-28T10:52:58.929Z,54.53
2016-05-28T10:53:59.323Z,54.72
2016-05-28T10:54:59.232Z,54.14
2016-05-28T10:55:58.907Z,54.62
2016-05-28T10:56:58.878Z,54.53
2016-05-28T10:57:58.865Z,54.14
2016-05-28T10:58:58.852Z,54.24
2016-05-28T10:59:58.854Z,54.53
2016-05-28T11:00:58.842Z,54.24
2016-05-28T11:02:00.172Z,54.24
2016-05-28T11:02:58.801Z,54.43
2016-05-28T11:03:58.787Z,54.43
2016-05-28T11:04:59.103Z,54.62
2016-05-28T11:05:58.761Z,54.53
2016-05-28T11:06:58.780Z,54.62
2016-05-28T11:07:58.580Z,54.62
2016-05-28T11:08:58.722Z,54.53
2016-05-28T11:09:58.725Z,54.14
2016-05-28T11:10:58.713Z,54.53
2016-05-28T11:11:58.683Z,54.53
2016-05-28T11:12:58.671Z,54.33
2016-05-28T11:13:58.705Z,54.24
2016-05-28T11:14:58.645Z,54.72
2016-05-28T11:15:58.647Z,54.53
2016-05-28T11:16:58.635Z,54.82
2016-05-28T11:17:58.622Z,55.01
2016-05-28T11:18:58.594Z,54.62
2016-05-28T11:19:58.596Z,55.01
2016-05-28T11:20:58.583Z,55.01
2016-05-28T11:21:58.571Z,54.72
2016-05-28T11:22:58.558Z,54.43
2016-05-28T11:23:58.543Z,54.53
2016-05-28T11:24:58.531Z,54.24
2016-05-28T11:25:58.534Z,55.01
2016-05-28T11:26:58.506Z,55.1
2016-05-28T11:27:58.508Z,55.49
2016-05-28T11:28:58.479Z,55.88
2016-05-28T11:29:58.467Z,55.68
2016-05-28T11:30:58.454Z,55.49
2016-05-28T11:31:58.456Z,55.68
2016-05-28T11:32:58.428Z,55.4
2016-05-28T11:33:58.415Z,55.2
2016-05-28T11:34:58.856Z,55.68
2016-05-28T11:35:58.389Z,55.59
2016-05-28T11:36:58.391Z,55.49
2016-05-28T11:37:58.363Z,55.1
2016-05-28T11:38:58.366Z,55.27
2016-05-28T11:39:58.353Z,55.76
2016-05-28T11:40:58.324Z,55.88
2016-05-28T11:41:58.328Z,55.76
2016-05-28T11:42:58.299Z,55.3
2016-05-28T11:43:58.301Z,55.4
2016-05-28T11:44:58.132Z,55.88
2016-05-28T11:45:58.275Z,56.07
2016-05-28T11:46:58.247Z,55.98
2016-05-28T11:47:58.250Z,55.78
2016-05-28T11:48:58.221Z,54.62
2016-05-28T11:49:58.254Z,54.05
2016-05-28T11:50:58.211Z,53.75
2016-05-28T11:51:58.041Z,53.17
2016-05-28T11:52:58.185Z,52.5
2016-05-28T11:53:58.187Z,53.17
2016-05-28T11:54:58.174Z,54.07
2016-05-28T11:55:58.146Z,54.55
2016-05-28T11:56:58.133Z,55.04
2016-05-28T11:57:58.120Z,55.1
2016-05-28T11:58:58.107Z,55.4
2016-05-28T11:59:58.094Z,55.1
2016-05-28T12:00:58.098Z,54.91
2016-05-28T12:01:58.084Z,55.04
2016-05-28T12:02:58.056Z,54.65
2016-05-28T12:03:58.042Z,54.36
2016-05-28T12:04:58.030Z,54.55
2016-05-28T12:05:58.032Z,53.69
2016-05-28T12:06:58.003Z,54.07
2016-05-28T12:07:58.007Z,53.69
2016-05-28T12:08:57.993Z,53.91
2016-05-28T12:09:57.981Z,53.42
2016-05-28T12:10:57.968Z,53.91
2016-05-28T12:11:57.955Z,53.49
2016-05-28T12:12:57.785Z,53.39
2016-05-28T12:13:57.929Z,53.13
2016-05-28T12:14:57.916Z,52.75
2016-05-28T12:15:57.903Z,53.03
2016-05-28T12:16:57.890Z,52.36
2016-05-28T12:17:57.877Z,52.36
2016-05-28T12:18:57.864Z,52.17
2016-05-28T12:19:57.852Z,52.26
2016-05-28T12:20:57.838Z,51.87
2016-05-28T12:21:57.825Z,51.97
2016-05-28T12:22:57.812Z,52.09
2016-05-28T12:23:57.815Z,51.42
2016-05-28T12:24:57.802Z,51.42
2016-05-28T12:25:57.790Z,51.61
2016-05-28T12:26:57.776Z,51.51
2016-05-28T12:27:57.763Z,51.03
2016-05-28T12:28:57.750Z,51.13
2016-05-28T12:29:57.722Z,51.23
2016-05-28T12:30:57.709Z,50.74
2016-05-28T12:31:57.726Z,50.84
2016-05-28T12:32:57.698Z,50.55
2016-05-28T12:33:57.686Z,50.76
2016-05-28T12:34:57.673Z,51.71
2016-05-28T12:35:57.659Z,51.51
2016-05-28T12:36:57.648Z,52.09
2016-05-28T12:37:57.634Z,53.03
2016-05-28T12:38:57.621Z,53.23
2016-05-28T12:39:57.609Z,53.03
2016-05-28T12:40:57.595Z,53.71
2016-05-28T12:41:57.598Z,53.49
2016-05-28T12:42:57.569Z,53.91
2016-05-28T12:43:57.572Z,53.78
2016-05-28T12:44:57.575Z,53.59
2016-05-28T12:45:57.546Z,54
2016-05-28T12:46:57.534Z,53.69
2016-05-28T12:47:57.364Z,54.65
2016-05-28T12:48:57.507Z,54.46
2016-05-28T12:49:57.354Z,54.55
2016-05-28T12:50:57.482Z,54.27
2016-05-28T12:51:57.312Z,54.17
2016-05-28T12:52:57.471Z,54.27
2016-05-28T12:53:57.443Z,54.46
2016-05-28T12:54:57.460Z,54.65
2016-05-28T12:55:57.432Z,54.55
2016-05-28T12:56:57.404Z,54.65